To NAV CANADA Home Page Login to a new session Search on AWWS site Feedback and Comments Disclaimer Vers la page française équivalente Tips FAQ What's new on the site To the Forecasts and Observations / NOTAM section To "File a Flight Plan" website Publications and other links Update of the User's profile FIC Telephone Numbers My Weather Data Folder Route Weather Data Regional Weather Data Local Weather Data To the Forecasts and Observations / NOTAM section
Request Generated 07/03/2015 at 11:44:08 UTC . Weather information available at that time is displayed.

METAR/TAF

WINDSOR/ON    

METAR CYQG 031100Z 36004KT 15SM FEW240 BKN260 13/11 A3000 RMK CI2CI4
CONTRAILS SLP157=
METAR CYQG 031000Z 36005KT 15SM BKN260 12/09 A2998 RMK CI6 SLP153=
METAR CYQG 030900Z 02002KT 15SM SCT270 13/09 A2999 RMK CI3 SLP155=

TAF CYQG 031138Z 0312/0412 36005KT P6SM FEW240
FM031400 08008KT P6SM FEW040
BECMG 0402/0404 VRB03KT
RMK NXT FCST BY 031800Z=
Your time UTC time
Weather data provided by Environment Canada and NAV CANADA